createdAt,value
2019-02-21T00:01:11.049Z,20.07
2019-02-21T00:03:15.349Z,13.07
2019-02-21T00:05:19.589Z,46.90
2019-02-21T00:07:24.298Z,66.93
2019-02-21T00:09:28.472Z,19.13
2019-02-21T00:11:32.676Z,446.20
2019-02-21T00:13:36.901Z,87.07
2019-02-21T00:15:41.082Z,27.50
2019-02-21T00:17:45.264Z,11.90
2019-02-21T00:19:50.161Z,10.00
2019-02-21T00:21:56.244Z,9.10
2019-02-21T00:24:08.214Z,8.97
2019-02-21T00:26:12.827Z,7.97
2019-02-21T00:28:16.946Z,51.33
2019-02-21T00:30:21.080Z,21.40
2019-02-21T00:32:25.558Z,9.20
2019-02-21T00:34:38.657Z,21.90
2019-02-21T00:36:42.831Z,13.13
2019-02-21T00:38:47.058Z,47.87
2019-02-21T00:40:51.203Z,65.20
2019-02-21T00:42:58.246Z,218.50
2019-02-21T00:45:05.367Z,72.83
2019-02-21T00:47:13.417Z,67.80
2019-02-21T00:49:17.545Z,91.57
2019-02-21T00:51:21.765Z,24.17
2019-02-21T00:53:25.885Z,16.03
2019-02-21T00:55:30.040Z,297.20
2019-02-21T00:57:34.278Z,66.73
2019-02-21T00:59:38.397Z,19.00
2019-02-21T01:01:42.578Z,20.53
2019-02-21T01:03:46.814Z,28.73
2019-02-21T01:05:50.987Z,74.87
2019-02-21T01:07:55.537Z,507.40
2019-02-21T01:10:00.726Z,434.27
2019-02-21T01:12:08.439Z,561.77
2019-02-21T01:14:15.341Z,756.60
2019-02-21T01:16:19.721Z,445.07
2019-02-21T01:18:23.982Z,152.07
2019-02-21T01:20:28.163Z,78.83
2019-02-21T01:22:32.704Z,161.60
2019-02-21T01:24:36.884Z,466.83
2019-02-21T01:26:41.092Z,466.57
2019-02-21T01:28:45.344Z,659.20
2019-02-21T01:30:56.677Z,312.03
2019-02-21T01:32:55.532Z,202.13
2019-02-21T01:34:59.701Z,214.53
2019-02-21T01:37:04.081Z,333.90
2019-02-21T01:39:11.251Z,76.17
2019-02-21T01:41:22.462Z,21.00
2019-02-21T01:43:28.912Z,21.93
2019-02-21T01:45:33.116Z,12.90
2019-02-21T01:47:37.233Z,8.47
2019-02-21T01:49:45.191Z,8.03
2019-02-21T01:51:53.488Z,7.83
2019-02-21T01:54:01.787Z,6.57
2019-02-21T01:56:05.948Z,6.60
2019-02-21T01:58:10.105Z,6.97
2019-02-21T02:00:14.460Z,6.47
2019-02-21T02:02:18.952Z,6.90
2019-02-21T02:04:23.129Z,6.27
2019-02-21T02:06:27.329Z,5.70
2019-02-21T02:08:31.442Z,6.60
2019-02-21T02:10:35.587Z,6.00
2019-02-21T02:12:39.711Z,5.30
2019-02-21T02:14:46.762Z,5.37
2019-02-21T02:16:54.057Z,5.53
2019-02-21T02:19:04.382Z,5.50
2019-02-21T02:21:08.838Z,5.67
2019-02-21T02:23:12.972Z,5.40
2019-02-21T02:27:20.308Z,5.10
2019-02-21T02:29:24.464Z,4.73
2019-02-21T02:31:28.682Z,5.47
2019-02-21T02:33:32.825Z,5.50
2019-02-21T02:35:37.033Z,5.00
2019-02-21T02:37:41.244Z,5.10
2019-02-21T02:39:45.402Z,5.83
2019-02-21T02:41:51.421Z,4.70
2019-02-21T02:43:58.763Z,4.47
2019-02-21T02:46:04.972Z,5.07
2019-02-21T02:48:10.892Z,5.10
2019-02-21T02:50:16.004Z,5.63
2019-02-21T02:52:20.201Z,5.00
2019-02-21T02:54:24.362Z,4.07
2019-02-21T02:56:29.455Z,4.83
2019-02-21T03:00:37.132Z,4.80
2019-02-21T03:02:41.632Z,4.00
2019-02-21T03:04:45.826Z,4.07
2019-02-21T03:06:50.168Z,4.23
2019-02-21T03:08:56.062Z,4.70
2019-02-21T03:11:03.304Z,4.90
2019-02-21T03:13:10.291Z,4.87
2019-02-21T03:15:14.902Z,4.20
2019-02-21T03:17:19.043Z,4.47
2019-02-21T03:19:23.611Z,4.60
2019-02-21T03:21:27.779Z,4.93
2019-02-21T03:23:31.910Z,5.70
2019-02-21T03:25:36.080Z,5.00
2019-02-21T03:27:40.253Z,4.53
2019-02-21T03:29:44.457Z,4.70
2019-02-21T03:31:54.137Z,5.33
2019-02-21T03:33:54.874Z,4.93
2019-02-21T03:36:00.579Z,4.57
2019-02-21T03:38:08.605Z,5.53
2019-02-21T03:40:16.612Z,4.60
2019-02-21T03:42:23.178Z,4.77
2019-02-21T03:44:27.341Z,4.90
2019-02-21T03:46:31.662Z,5.10
2019-02-21T03:48:35.923Z,4.60
2019-02-21T03:50:40.038Z,4.23
2019-02-21T03:52:44.584Z,4.97
2019-02-21T03:54:49.278Z,4.23
2019-02-21T03:56:53.557Z,4.77
2019-02-21T03:58:57.681Z,5.23
2019-02-21T04:01:02.417Z,4.90
2019-02-21T04:03:06.773Z,4.60
2019-02-21T04:05:14.483Z,4.70
2019-02-21T04:07:22.997Z,4.70
2019-02-21T04:09:29.117Z,4.87
2019-02-21T04:11:33.203Z,5.63
2019-02-21T04:13:37.753Z,5.90
2019-02-21T04:15:42.985Z,4.50
2019-02-21T04:17:47.254Z,4.90
2019-02-21T04:19:56.414Z,5.10
2019-02-21T04:22:00.518Z,4.97
2019-02-21T04:24:04.689Z,5.03
2019-02-21T04:26:09.043Z,4.97
2019-02-21T04:28:15.001Z,5.03
2019-02-21T04:30:21.245Z,5.13
2019-02-21T04:32:25.539Z,4.93
2019-02-21T04:34:29.665Z,4.93
2019-02-21T04:36:34.157Z,4.70
2019-02-21T04:38:38.260Z,5.27
2019-02-21T04:40:45.388Z,5.30
2019-02-21T04:42:51.988Z,4.93
2019-02-21T04:44:59.316Z,5.17
2019-02-21T04:47:04.323Z,4.93
2019-02-21T04:49:08.857Z,4.60
2019-02-21T04:51:14.078Z,5.07
2019-02-21T04:53:18.174Z,4.67
2019-02-21T04:55:22.303Z,4.83
2019-02-21T04:57:26.566Z,5.53
2019-02-21T04:59:30.755Z,4.77
2019-02-21T05:01:35.173Z,4.50
2019-02-21T05:03:39.287Z,4.77
2019-02-21T05:05:43.758Z,5.50
2019-02-21T05:07:48.337Z,4.50
2019-02-21T05:09:58.469Z,4.83
2019-02-21T05:12:06.408Z,4.70
2019-02-21T05:14:11.011Z,5.23
2019-02-21T05:16:15.210Z,5.57
2019-02-21T05:18:19.535Z,5.00
2019-02-21T05:20:23.916Z,5.13
2019-02-21T05:22:28.110Z,5.00
2019-02-21T05:24:32.434Z,4.50
2019-02-21T05:26:41.729Z,5.40
2019-02-21T05:28:45.972Z,6.00
2019-02-21T05:30:52.203Z,5.50
2019-02-21T05:33:10.256Z,5.00
2019-02-21T05:35:20.149Z,5.80
2019-02-21T05:37:39.115Z,5.43
2019-02-21T05:40:04.999Z,6.10
2019-02-21T05:42:33.768Z,5.60
2019-02-21T05:44:54.253Z,5.80
2019-02-21T05:47:22.724Z,6.77
2019-02-21T05:49:40.999Z,7.03
2019-02-21T05:51:59.503Z,7.20
2019-02-21T05:54:33.970Z,6.80
2019-02-21T05:57:06.290Z,5.67
2019-02-21T05:59:36.601Z,6.17
2019-02-21T06:02:03.875Z,5.90
2019-02-21T06:04:46.166Z,5.73
2019-02-21T06:07:13.619Z,6.03
2019-02-21T06:09:49.366Z,6.27
2019-02-21T06:12:03.698Z,5.80
2019-02-21T06:14:27.739Z,5.70
2019-02-21T06:16:51.125Z,5.67
2019-02-21T06:19:14.264Z,5.53
2019-02-21T06:21:36.545Z,5.90
2019-02-21T06:24:06.854Z,5.40
2019-02-21T06:26:29.306Z,6.53
2019-02-21T06:28:37.953Z,4.67
2019-02-21T06:30:52.184Z,5.23
2019-02-21T06:33:04.503Z,5.60
2019-02-21T06:35:03.094Z,4.83
2019-02-21T06:37:13.215Z,5.60
2019-02-21T06:39:21.163Z,5.27
2019-02-21T06:41:24.961Z,5.30
2019-02-21T06:43:29.074Z,5.10
2019-02-21T06:45:33.278Z,5.67
2019-02-21T06:47:37.521Z,5.17
2019-02-21T06:49:41.685Z,5.77
2019-02-21T06:51:47.625Z,5.63
2019-02-21T06:53:57.857Z,4.93
2019-02-21T06:56:02.032Z,5.03
2019-02-21T06:58:06.261Z,5.33
2019-02-21T07:00:10.428Z,4.73
2019-02-21T07:02:14.575Z,4.80
2019-02-21T07:04:18.747Z,5.40
2019-02-21T07:06:31.501Z,5.13
2019-02-21T07:08:28.823Z,5.83
2019-02-21T07:10:33.024Z,4.37
2019-02-21T07:12:37.260Z,5.90
2019-02-21T07:14:41.788Z,7.87
2019-02-21T07:16:49.901Z,16.40
2019-02-21T07:18:56.084Z,336.77
2019-02-21T07:21:03.042Z,100.30
2019-02-21T07:23:07.325Z,604.70
2019-02-21T07:25:22.261Z,751.90
2019-02-21T07:27:26.434Z,711.57
2019-02-21T07:29:30.562Z,407.83
2019-02-21T07:31:35.013Z,78.77
2019-02-21T07:33:39.269Z,210.13
2019-02-21T07:35:43.942Z,138.50
2019-02-21T07:37:50.165Z,260.47
2019-02-21T07:39:58.195Z,68.97
2019-02-21T07:42:04.934Z,35.43
2019-02-21T07:44:12.337Z,21.67
2019-02-21T07:46:16.181Z,185.23
2019-02-21T07:48:20.362Z,60.40
2019-02-21T07:50:24.681Z,20.90
2019-02-21T07:52:28.914Z,215.90
2019-02-21T07:54:33.371Z,550.73
2019-02-21T07:56:41.973Z,345.87
2019-02-21T07:58:43.722Z,96.53
2019-02-21T08:00:48.043Z,176.60
2019-02-21T08:02:52.248Z,331.93
2019-02-21T08:04:57.289Z,200.33
2019-02-21T08:07:05.641Z,36.83
2019-02-21T08:09:12.303Z,24.20
2019-02-21T08:11:17.833Z,26.93
2019-02-21T08:13:22.042Z,420.63
2019-02-21T08:15:27.728Z,453.40
2019-02-21T08:17:32.046Z,141.67
2019-02-21T08:19:36.681Z,55.70
2019-02-21T08:21:43.378Z,428.13
2019-02-21T08:23:50.564Z,535.17
2019-02-21T08:25:52.594Z,205.03
2019-02-21T08:27:59.242Z,128.70
2019-02-21T08:30:04.815Z,230.90
2019-02-21T08:32:14.582Z,200.40
2019-02-21T08:34:24.565Z,98.97
2019-02-21T08:36:28.833Z,30.90
2019-02-21T08:38:33.049Z,338.83
2019-02-21T08:40:37.549Z,476.10
2019-02-21T08:42:41.759Z,505.10
2019-02-21T08:44:45.941Z,167.07
2019-02-21T08:46:55.437Z,53.13
2019-02-21T08:48:59.883Z,30.20
2019-02-21T08:51:06.072Z,18.70
2019-02-21T08:53:09.846Z,14.33
2019-02-21T08:55:14.877Z,541.53
2019-02-21T08:57:21.382Z,897.83
2019-02-21T08:59:25.527Z,481.13
2019-02-21T09:01:29.727Z,195.30
2019-02-21T09:03:33.897Z,49.13
2019-02-21T09:05:38.323Z,32.83
2019-02-21T09:07:42.936Z,21.13
2019-02-21T09:09:50.653Z,15.10
2019-02-21T09:11:57.571Z,17.60
2019-02-21T09:14:04.417Z,16.10
2019-02-21T09:16:10.412Z,17.10
2019-02-21T09:18:15.200Z,9.77
2019-02-21T09:20:19.545Z,10.83
2019-02-21T09:22:23.666Z,18.40
2019-02-21T09:24:38.053Z,11.83
2019-02-21T09:26:34.767Z,17.13
2019-02-21T09:28:39.139Z,14.87
2019-02-21T09:30:43.522Z,10.87
2019-02-21T09:32:47.980Z,10.60
2019-02-21T09:34:55.185Z,318.73
2019-02-21T09:37:05.484Z,235.13
2019-02-21T09:39:10.769Z,120.77
2019-02-21T09:41:15.069Z,24.73
2019-02-21T09:43:19.396Z,14.30
2019-02-21T09:45:23.637Z,25.57
2019-02-21T09:47:30.857Z,89.70
2019-02-21T09:49:33.950Z,26.80
2019-02-21T09:51:40.442Z,21.60
2019-02-21T09:53:45.083Z,90.00
2019-02-21T09:55:50.428Z,377.83
2019-02-21T09:57:55.469Z,174.63
2019-02-21T10:00:03.355Z,104.30
2019-02-21T10:02:10.173Z,307.43
2019-02-21T10:04:17.518Z,179.57
2019-02-21T10:06:22.877Z,62.40
2019-02-21T10:08:27.615Z,24.30
2019-02-21T10:10:33.948Z,16.00
2019-02-21T10:12:38.405Z,25.83
2019-02-21T10:14:43.328Z,14.63
2019-02-21T10:16:49.603Z,14.00
2019-02-21T10:18:53.319Z,15.00
2019-02-21T10:20:58.390Z,9.63
2019-02-21T10:23:05.672Z,138.60
2019-02-21T10:25:17.709Z,111.83
2019-02-21T10:27:22.284Z,722.73
2019-02-21T10:29:29.937Z,586.40
2019-02-21T10:31:34.174Z,813.27
2019-02-21T10:33:46.488Z,661.73
2019-02-21T10:35:44.685Z,252.80
2019-02-21T10:37:48.992Z,83.60
2019-02-21T10:39:53.157Z,30.20
2019-02-21T10:41:57.641Z,22.83
2019-02-21T10:44:04.667Z,24.23
2019-02-21T10:46:12.341Z,19.33
2019-02-21T10:48:17.647Z,11.80
2019-02-21T10:50:28.050Z,13.37
2019-02-21T10:52:29.998Z,9.17
2019-02-21T10:54:34.266Z,10.70
2019-02-21T10:56:38.384Z,9.43
2019-02-21T10:58:42.539Z,11.70
2019-02-21T11:00:51.873Z,732.30
2019-02-21T11:03:02.489Z,615.33
2019-02-21T11:05:08.179Z,833.40
2019-02-21T11:07:12.843Z,888.30
2019-02-21T11:09:21.896Z,639.40
2019-02-21T11:11:26.353Z,537.63
2019-02-21T11:13:30.635Z,438.83
2019-02-21T11:15:34.817Z,804.30
2019-02-21T11:17:39.427Z,733.87
2019-02-21T11:19:45.666Z,667.47
2019-02-21T11:21:53.410Z,461.27
2019-02-21T11:24:01.588Z,227.57
2019-02-21T11:26:05.779Z,123.63
2019-02-21T11:28:10.051Z,51.33
2019-02-21T11:30:16.496Z,32.00
2019-02-21T11:32:20.650Z,619.73
2019-02-21T11:34:27.890Z,39.33
2019-02-21T11:36:43.136Z,160.57
2019-02-21T11:38:48.798Z,972.00
2019-02-21T11:40:56.986Z,773.63
2019-02-21T11:43:05.543Z,294.93
2019-02-21T11:45:13.216Z,84.67
2019-02-21T11:47:18.051Z,44.47
2019-02-21T11:49:22.305Z,29.03
2019-02-21T11:51:28.158Z,20.93
2019-02-21T11:53:32.375Z,17.50
2019-02-21T11:55:36.536Z,17.63
2019-02-21T11:57:41.135Z,410.37
2019-02-21T11:59:45.492Z,900.37
2019-02-21T12:01:49.834Z,940.30
2019-02-21T12:03:57.259Z,218.60
2019-02-21T12:06:04.146Z,85.87
2019-02-21T12:08:12.674Z,48.67
2019-02-21T12:10:17.164Z,1607.37
2019-02-21T12:12:22.187Z,1670.63
2019-02-21T12:14:26.751Z,548.03
2019-02-21T12:16:31.281Z,263.17
2019-02-21T12:18:35.863Z,167.97
2019-02-21T12:20:40.213Z,101.80
2019-02-21T12:22:47.016Z,69.57
2019-02-21T12:24:50.924Z,47.63
2019-02-21T12:26:55.553Z,35.47
2019-02-21T12:29:05.607Z,25.67
2019-02-21T12:31:12.116Z,20.93
2019-02-21T12:33:19.473Z,18.70
2019-02-21T12:35:29.637Z,88.87
2019-02-21T12:37:29.621Z,41.50
2019-02-21T12:39:33.866Z,1075.57
2019-02-21T12:41:38.159Z,1937.40
2019-02-21T12:43:42.636Z,765.00
2019-02-21T12:45:46.840Z,558.37
2019-02-21T12:47:53.741Z,1452.80
2019-02-21T12:49:57.007Z,1999.90
2019-02-21T12:52:01.698Z,680.23
2019-02-21T12:54:10.838Z,548.77
2019-02-21T12:56:18.004Z,557.53
2019-02-21T12:58:25.051Z,1999.90
2019-02-21T13:00:29.239Z,1586.80
2019-02-21T13:02:33.495Z,817.10
2019-02-21T13:04:38.164Z,610.43
2019-02-21T13:06:43.267Z,474.73
2019-02-21T13:08:49.102Z,440.67
2019-02-21T13:10:53.319Z,1367.10
2019-02-21T13:12:57.643Z,881.13
2019-02-21T13:15:02.050Z,1999.90
2019-02-21T13:17:06.887Z,744.67
2019-02-21T13:19:13.662Z,566.10
2019-02-21T13:21:19.487Z,560.03
2019-02-21T13:23:27.678Z,413.63
2019-02-21T13:25:32.231Z,326.47
2019-02-21T13:27:36.858Z,203.93
2019-02-21T13:29:41.237Z,114.43
2019-02-21T13:31:45.524Z,76.80
2019-02-21T13:33:51.590Z,40.90
2019-02-21T13:35:56.212Z,31.57
2019-02-21T13:38:03.762Z,19.97
2019-02-21T13:40:09.193Z,699.77
2019-02-21T13:42:14.447Z,343.40
2019-02-21T13:44:18.796Z,1166.67
2019-02-21T13:46:24.381Z,691.33
2019-02-21T13:48:28.934Z,534.27
2019-02-21T13:50:33.426Z,890.20
2019-02-21T13:52:37.659Z,441.27
2019-02-21T13:54:41.983Z,419.80
2019-02-21T13:56:46.839Z,274.80
2019-02-21T13:58:55.360Z,174.70
2019-02-21T14:01:04.840Z,101.07
2019-02-21T14:03:09.859Z,36.40
2019-02-21T14:05:15.752Z,38.60
2019-02-21T14:07:20.374Z,25.37
2019-02-21T14:09:24.665Z,16.43
2019-02-21T14:11:30.796Z,24.80
2019-02-21T14:13:37.541Z,15.60
2019-02-21T14:15:41.517Z,19.63
2019-02-21T14:17:47.269Z,109.97
2019-02-21T14:19:55.529Z,758.60
2019-02-21T14:22:05.834Z,822.33
2019-02-21T14:24:22.603Z,693.23
2019-02-21T14:26:28.872Z,812.47
2019-02-21T14:28:33.107Z,758.33
2019-02-21T14:30:37.317Z,537.87
2019-02-21T14:32:43.837Z,481.40
2019-02-21T14:34:48.449Z,894.70
2019-02-21T14:36:53.497Z,1034.40
2019-02-21T14:39:02.090Z,1025.30
2019-02-21T14:41:12.399Z,816.13
2019-02-21T14:43:17.122Z,628.73
2019-02-21T14:45:21.485Z,486.93
2019-02-21T14:47:25.696Z,318.50
2019-02-21T14:49:30.007Z,168.57
2019-02-21T14:51:34.215Z,190.87
2019-02-21T14:53:38.433Z,395.70
2019-02-21T14:55:43.286Z,202.87
2019-02-21T14:57:47.532Z,89.13
2019-02-21T14:59:52.160Z,106.07
2019-02-21T15:01:57.222Z,55.33
2019-02-21T15:04:05.148Z,117.50
2019-02-21T15:06:14.346Z,240.83
2019-02-21T15:08:22.166Z,212.77
2019-02-21T15:10:26.713Z,207.93
2019-02-21T15:12:30.924Z,214.20
2019-02-21T15:14:35.171Z,79.93
2019-02-21T15:16:39.391Z,41.37
2019-02-21T15:18:43.999Z,32.90
2019-02-21T15:20:50.279Z,25.93
2019-02-21T15:22:58.162Z,22.60
2019-02-21T15:25:02.782Z,20.83
2019-02-21T15:27:12.094Z,18.20
2019-02-21T15:29:23.873Z,18.13
2019-02-21T15:31:29.130Z,16.77
2019-02-21T15:33:34.288Z,14.10
2019-02-21T15:35:39.367Z,13.83
2019-02-21T15:37:45.052Z,18.17
2019-02-21T15:39:51.706Z,13.33
2019-02-21T15:41:56.697Z,16.13
2019-02-21T15:44:01.472Z,13.90
2019-02-21T15:46:07.547Z,15.70
2019-02-21T15:48:16.503Z,14.13
2019-02-21T15:50:40.931Z,24.47
2019-02-21T15:52:49.509Z,13.27
2019-02-21T15:54:57.047Z,12.93
2019-02-21T15:57:13.072Z,13.03
2019-02-21T15:59:29.792Z,12.80
2019-02-21T16:01:35.070Z,15.20
2019-02-21T16:03:42.502Z,18.93
2019-02-21T16:05:47.630Z,13.80
2019-02-21T16:07:57.034Z,12.23
2019-02-21T16:10:07.117Z,13.77
2019-02-21T16:12:11.926Z,12.50
2019-02-21T16:14:16.457Z,31.43
2019-02-21T16:16:21.585Z,12.80
2019-02-21T16:18:26.189Z,12.67
2019-02-21T16:20:30.996Z,16.33
2019-02-21T16:22:35.599Z,14.20
2019-02-21T16:24:40.132Z,12.83
2019-02-21T16:26:44.901Z,13.23
2019-02-21T16:28:55.363Z,11.93
2019-02-21T16:31:06.730Z,12.03
2019-02-21T16:33:11.403Z,12.20
2019-02-21T16:35:15.798Z,12.80
2019-02-21T16:37:20.667Z,12.40
2019-02-21T16:39:25.575Z,13.73
2019-02-21T16:41:36.272Z,12.40
2019-02-21T16:43:38.166Z,12.87
2019-02-21T16:45:47.174Z,12.70
2019-02-21T16:47:50.025Z,12.73
2019-02-21T16:49:58.523Z,236.63
2019-02-21T16:52:04.644Z,239.53
2019-02-21T16:54:11.238Z,324.83
2019-02-21T16:56:16.809Z,179.73
2019-02-21T16:58:21.195Z,256.57
2019-02-21T17:00:25.759Z,258.60
2019-02-21T17:02:33.512Z,226.37
2019-02-21T17:04:40.838Z,238.67
2019-02-21T17:06:46.479Z,236.77
2019-02-21T17:08:51.503Z,240.13
2019-02-21T17:10:58.225Z,328.97
2019-02-21T17:13:09.213Z,256.93
2019-02-21T17:30:53.746Z,167.53
2019-02-21T17:32:57.860Z,134.17
2019-02-21T17:35:05.362Z,212.77
2019-02-21T17:37:12.090Z,224.37
2019-02-21T17:39:19.578Z,319.97
2019-02-21T17:41:23.871Z,416.87
2019-02-21T17:43:28.403Z,610.67
2019-02-21T17:45:32.607Z,1463.53
2019-02-21T17:47:36.959Z,1404.60
2019-02-21T17:49:47.201Z,1488.70
2019-02-21T17:51:53.851Z,1575.90
2019-02-21T17:53:58.263Z,1458.67
2019-02-21T17:56:02.586Z,1392.70
2019-02-21T17:58:10.461Z,1244.40
2019-02-21T18:00:17.471Z,1134.90
2019-02-21T18:02:23.145Z,960.60
2019-02-21T18:04:27.306Z,822.10
2019-02-21T18:06:31.499Z,722.97
2019-02-21T18:08:35.773Z,679.73
2019-02-21T18:10:39.907Z,553.50
2019-02-21T18:12:45.197Z,480.17
2019-02-21T18:14:49.445Z,436.20
2019-02-21T18:16:54.310Z,396.53
2019-02-21T18:18:58.765Z,286.93
2019-02-21T18:21:03.536Z,267.27
2019-02-21T18:23:08.105Z,220.73
2019-02-21T18:25:21.324Z,185.53
2019-02-21T18:27:26.595Z,162.77
2019-02-21T18:29:32.857Z,142.87
2019-02-21T18:31:37.109Z,121.40
2019-02-21T18:33:41.339Z,115.40
2019-02-21T18:35:45.698Z,111.00
2019-02-21T18:37:49.892Z,100.53
2019-02-21T18:39:54.413Z,97.03
2019-02-21T18:42:02.325Z,88.83
2019-02-21T18:44:07.915Z,87.93
2019-02-21T18:46:12.767Z,85.10
2019-02-21T18:48:17.012Z,79.97
2019-02-21T18:50:21.689Z,76.50
2019-02-21T18:52:25.854Z,78.77
2019-02-21T18:54:30.874Z,70.87
2019-02-21T18:56:35.182Z,68.03
2019-02-21T18:58:39.522Z,66.80
2019-02-21T19:00:43.742Z,62.93
2019-02-21T19:02:48.645Z,58.43
2019-02-21T19:04:53.424Z,62.53
2019-02-21T19:07:01.217Z,58.27
2019-02-21T19:09:11.944Z,53.80
2019-02-21T19:11:16.124Z,58.30
2019-02-21T19:13:20.302Z,54.80
2019-02-21T19:15:28.970Z,52.03
2019-02-21T19:17:36.906Z,48.77
2019-02-21T19:19:42.067Z,48.00
2019-02-21T19:21:46.841Z,46.43
2019-02-21T19:23:51.007Z,49.60
2019-02-21T19:25:55.919Z,44.67
2019-02-21T19:28:04.168Z,46.23
2019-02-21T19:30:12.651Z,40.63
2019-02-21T19:32:17.154Z,44.73
2019-02-21T19:34:24.458Z,45.97
2019-02-21T19:36:28.757Z,43.97
2019-02-21T19:38:32.965Z,40.00
2019-02-21T19:40:37.138Z,37.80
2019-02-21T19:42:41.360Z,41.37
2019-02-21T19:44:45.570Z,37.70
2019-02-21T19:46:49.797Z,42.40
2019-02-21T19:48:53.998Z,40.23
2019-02-21T19:50:58.425Z,38.53
2019-02-21T19:53:03.007Z,36.07
2019-02-21T19:55:10.568Z,36.63
2019-02-21T19:57:17.235Z,36.60
2019-02-21T19:59:23.305Z,36.73
2019-02-21T20:01:28.245Z,35.47
2019-02-21T20:03:32.788Z,34.37
2019-02-21T20:05:37.232Z,34.67
2019-02-21T20:07:41.432Z,32.97
2019-02-21T20:09:45.671Z,33.50
2019-02-21T20:11:49.892Z,34.40
2019-02-21T20:13:54.132Z,34.60
2019-02-21T20:15:58.372Z,31.67
2019-02-21T20:18:03.618Z,31.57
2019-02-21T20:20:09.658Z,34.13
2019-02-21T20:22:15.863Z,31.80
2019-02-21T20:24:21.641Z,31.53
2019-02-21T20:26:28.583Z,30.90
2019-02-21T20:28:33.793Z,30.47
2019-02-21T20:30:38.906Z,30.90
2019-02-21T20:32:43.196Z,31.40
2019-02-21T20:34:47.455Z,30.93
2019-02-21T20:37:00.422Z,28.90
2019-02-21T20:39:05.316Z,27.70
2019-02-21T20:41:09.501Z,28.73
2019-02-21T20:43:16.841Z,29.13
2019-02-21T20:45:21.119Z,28.23
2019-02-21T20:47:25.321Z,32.40
2019-02-21T20:49:29.502Z,30.20
2019-02-21T20:51:33.701Z,29.00
2019-02-21T20:53:37.991Z,30.37
2019-02-21T20:55:43.952Z,28.10
2019-02-21T20:59:55.618Z,29.67
2019-02-21T21:02:01.112Z,27.33
2019-02-21T21:04:05.708Z,29.53
2019-02-21T21:06:10.212Z,28.30
2019-02-21T21:08:14.628Z,28.57
2019-02-21T21:10:19.047Z,27.50
2019-02-21T21:12:23.370Z,29.77
2019-02-21T21:14:27.670Z,28.10
2019-02-21T21:16:31.826Z,27.10
2019-02-21T21:18:36.241Z,27.47
2019-02-21T21:20:40.450Z,28.03
2019-02-21T21:22:44.701Z,26.00
2019-02-21T21:24:49.386Z,28.13
2019-02-21T21:26:57.589Z,24.50
2019-02-21T21:29:03.377Z,27.67
2019-02-21T21:31:11.120Z,26.07
2019-02-21T21:33:15.312Z,28.67
2019-02-21T21:35:19.678Z,27.17
2019-02-21T21:37:24.382Z,25.77
2019-02-21T21:39:28.995Z,26.53
2019-02-21T21:41:33.812Z,25.80
2019-02-21T21:43:38.214Z,24.80
2019-02-21T21:45:42.373Z,26.03
2019-02-21T21:47:46.510Z,25.43
2019-02-21T21:49:50.769Z,25.63
2019-02-21T21:51:55.638Z,26.37
2019-02-21T21:54:03.679Z,24.50
2019-02-21T21:56:09.184Z,25.77
2019-02-21T21:58:14.003Z,27.40
2019-02-21T22:00:20.171Z,24.77
2019-02-21T22:02:24.355Z,24.70
2019-02-21T22:04:28.676Z,26.00
2019-02-21T22:06:32.880Z,23.70
2019-02-21T22:08:37.043Z,25.70
2019-02-21T22:10:41.216Z,24.43
2019-02-21T22:12:45.639Z,26.63
2019-02-21T22:14:49.876Z,24.67
2019-02-21T22:16:54.129Z,23.77
2019-02-21T22:18:58.325Z,22.97
2019-02-21T22:21:03.736Z,23.60
2019-02-21T22:23:10.874Z,21.57
2019-02-21T22:25:22.233Z,30.90
2019-02-21T22:27:26.393Z,463.60
2019-02-21T22:29:30.770Z,494.83
2019-02-21T22:31:35.190Z,598.37
2019-02-21T22:33:39.753Z,400.40
2019-02-21T22:35:44.038Z,374.27
2019-02-21T22:37:48.502Z,362.80
2019-02-21T22:39:52.800Z,375.30
2019-02-21T22:41:59.318Z,292.23
2019-02-21T22:44:03.722Z,440.70
2019-02-21T22:46:11.822Z,429.20
2019-02-21T22:48:18.523Z,297.97
2019-02-21T22:50:26.931Z,233.00
2019-02-21T22:52:31.167Z,218.93
2019-02-21T22:54:35.349Z,182.37
2019-02-21T22:56:39.579Z,304.63
2019-02-21T22:58:45.296Z,484.97
2019-02-21T23:01:07.233Z,615.97
2019-02-21T23:03:17.469Z,1138.03
2019-02-21T23:05:52.793Z,992.47
2019-02-21T23:08:22.362Z,771.77
2019-02-21T23:10:26.638Z,964.23
2019-02-21T23:12:31.550Z,991.73
2019-02-21T23:14:35.729Z,813.97
2019-02-21T23:16:39.993Z,609.97
2019-02-21T23:18:47.175Z,553.63
2019-02-21T23:20:56.014Z,900.50
2019-02-21T23:23:02.451Z,863.37
2019-02-21T23:25:08.319Z,888.27
2019-02-21T23:27:12.469Z,1343.40
2019-02-21T23:29:16.624Z,1144.03
2019-02-21T23:31:20.996Z,1252.57
2019-02-21T23:33:28.005Z,1039.27
2019-02-21T23:35:32.188Z,1130.17
2019-02-21T23:37:36.391Z,1255.77
2019-02-21T23:39:40.612Z,1345.37
2019-02-21T23:41:44.779Z,1380.97
2019-02-21T23:43:51.377Z,1424.47
2019-02-21T23:45:59.582Z,1526.47
2019-02-21T23:48:08.772Z,1496.90
2019-02-21T23:50:12.972Z,1258.87
2019-02-21T23:52:17.148Z,1291.90
2019-02-21T23:54:21.375Z,1359.97
2019-02-21T23:56:25.696Z,951.87
2019-02-21T23:58:29.836Z,635.57
